Grulla, Texas
Current Conditions -  °F | °C
As of 10:53 PM on Saturday 20 Dec 2014 (Local Time) from KMFE Reporting Station
Overcast Overcast  
Wind Chill: 56°   Ceiling: 1300
Heat Index: 56°   Visibility: 10mi
Dew Point: 51°   Wind: 7mph
Humidity: 84%   Direction: 360°N
Pressure: 30.16"   Gusts: NA
Location:  26.27°N, 98.65°W
Report Text: KMFE 210453Z 36006KT 10SM OVC013 13/11 A3016 RMK AO2 SLP211 T01330106
Loading
Personal Weather Stations






























Interactive Weather Map New forecast layout! Learn more

10-Day Weather Forecast

Advertisements
Track Severe Weather on mobile